Nespelem, WA (99155)

1:23 PM PDT on September 19, 2014 (GMT -0700)
RAWS NESPELEM WA US | Change Station
CLOSE
Current Station
Personal Weather Station
Location: Elmer City, WA
Elevation: 1899 ft
Nearby Weather Stations

Elev 1899 ft 48.14 °N, 118.97 °W | Updated 26 minutes ago

Partly Cloudy
Partly Cloudy
78 °F
Feels Like 78 °F
N
11
Wind Variable Wind from SSW
Gusts 16.0 mph

Today
High -- | Low -- °F
--% Chance of Precip.
Yesterday
High -- | Low -- °F
Precip. -- in
6:39 AM 7:00 PM
Waning Crescent, 17% visible
Pressure 29.96 in
Visibility 10.0 miles
Clouds Clear
Heat Index 78 °F
Dew Point 46 °F
Humidity 32%
Rainfall 0.00 in
Snow Depth 0 in , 0 in , 0 in
UV 6 out of 12
Pollen 7.40 out of 12
Air Quality Not available.
Flu Activity Not available.
METAR KOMK 191953Z AUTO 21009KT 10SM CLR 27/08 A2998 RMK AO2 SLP144 T02670078 $

More Conditions Fewer Conditions

Pressure 29.96 in
Visibility 10.0 miles
Clouds Clear
Heat Index 78 °F
Dew Point 46 °F
Humidity 32%
Rainfall 0.00 in
Snow Depth 0 in , 0 in , 0 in
UV 6 out of 12
Pollen 7.40 out of 12
Air Quality Not available.
Flu Activity Not available.
METAR KOMK 191953Z AUTO 21009KT 10SM CLR 27/08 A2998 RMK AO2 SLP144 T02670078 $

More Conditions Fewer Conditions

10-Day Weather Forecast

Almanac

Astronomy

Sep. 19, 2014 Rise Set
Actual Time 6:39 AM PDT 7:00 PM PDT
Civil Twilight 6:08 AM PDT 7:32 PM PDT
Nautical Twilight 5:31 AM PDT 8:08 PM PDT
Astronomical Twilight 4:52 AM PDT 8:47 PM PDT
Moon 2:13 AM PDT 4:46 PM PDT
Length of Visible Light 13h 23m
Length of Day
12h 21m
Tomorrow will be 3m 28s shorter.
Waning Crescent, 17% of the Moon is Illuminated
Today
Waning Crescent
Sep 24
New
Oct 1
First Quarter
Oct 8
Full
Oct 15
Last Quarter

Today's Extremes

State Highs State Lows

Community

WunderPhotos

Upload Photos

1,754,693 photos uploaded!

WunderBlogs® & News

By Dr. Jeff Masters
Director of Meteorology, Weather Underground
By Kari Strenfel
Meteorologist, Weather Underground
By Christopher C. Burt
Weather Historian, Weather Underground
September 19, 2014
September 19, 2014
September 19, 2014

Nearby

Snow Depth

Station Depth Elevation
Trough 0 in 5300 ft
Alpine Meadows 0 in 3500 ft
Alpine Meadows 0 in 3500 ft
Bunchgrass Meadow 0 in 5000 ft
Bunchgrass Meadow 0 in 5000 ft

Earthquake Activity

City Distance Mag. Time & Date
No recent earthquake activity has been reported nearby.
Minimum magnitude displayed is 2.5.

Coastal Water Temperatures

Place Temperature
No Stations Reporting

Nearby Weather Stations